Time;durP1;ratioP1;P1;durP2;ratioP2;P2;SDS_P1;SDS_P2;PMS_P1;PMS_P2;Temp;Humidity;BMP_temperature;BMP_pressure;BME280_temperature;BME280_humidity;BME280_pressure;Samples;Min_cycle;Max_cycle;Signal;HPM_P1;HPM_P2
2021/10/17 00:00:31;;;;;;;8.23;5.43;;;15.30;99.90;;;;;;5058381;28;20135;-58
2021/10/17 00:02:59;;;;;;;9.77;5.00;;;15.30;99.90;;;;;;5041669;28;20120;-57
2021/10/17 00:05:29;;;;;;;10.57;5.00;;;15.30;99.90;;;;;;5076321;28;20051;-58
2021/10/17 00:07:57;;;;;;;7.80;4.38;;;15.20;99.90;;;;;;5041789;28;20044;-58
2021/10/17 00:10:28;;;;;;;8.98;4.95;;;15.20;99.90;;;;;;5041333;28;20437;-58
2021/10/17 00:12:58;;;;;;;9.52;5.55;;;15.20;99.90;;;;;;5076244;28;20131;-58
2021/10/17 00:15:27;;;;;;;10.93;5.72;;;15.10;99.90;;;;;;5058562;28;20056;-58
2021/10/17 00:17:55;;;;;;;10.25;5.20;;;15.20;99.90;;;;;;5057978;28;20036;-58
2021/10/17 00:20:25;;;;;;;9.82;6.00;;;15.10;99.90;;;;;;5041420;28;20054;-58
2021/10/17 00:22:54;;;;;;;10.73;5.35;;;15.10;99.90;;;;;;5057936;28;20049;-56
2021/10/17 00:25:23;;;;;;;14.88;6.93;;;15.10;99.90;;;;;;5058092;28;20040;-58
2021/10/17 00:27:51;;;;;;;10.02;5.70;;;15.00;99.90;;;;;;5058190;28;20041;-58
2021/10/17 00:30:37;;;;;;;;;;;15.00;99.90;;;;;;5044641;28;20076;-58
2021/10/17 00:33:06;;;;;;;11.25;4.70;;;15.00;99.90;;;;;;5041090;28;19920;-58
2021/10/17 00:35:35;;;;;;;7.78;5.05;;;15.00;99.90;;;;;;5057867;28;20049;-58
2021/10/17 00:38:03;;;;;;;10.52;5.63;;;15.00;99.90;;;;;;5058121;28;20127;-58
2021/10/17 00:40:30;;;;;;;10.50;5.60;;;15.00;99.90;;;;;;5041207;28;20099;-58
2021/10/17 00:42:58;;;;;;;10.85;6.20;;;15.00;99.90;;;;;;5053431;28;20040;-58
2021/10/17 00:45:30;;;;;;;10.13;5.75;;;15.00;99.90;;;;;;5024456;28;20049;-58
2021/10/17 00:47:59;;;;;;;6.88;4.55;;;15.00;99.90;;;;;;5041690;28;20422;-58
2021/10/17 00:50:28;;;;;;;7.57;4.70;;;15.00;99.90;;;;;;5041333;28;20045;-58
2021/10/17 00:52:55;;;;;;;6.82;4.80;;;15.00;99.90;;;;;;5041141;28;20115;-58
2021/10/17 00:55:28;;;;;;;8.30;5.13;;;15.00;99.90;;;;;;5024948;28;20060;-57
2021/10/17 00:58:01;;;;;;;7.10;4.70;;;15.00;99.90;;;;;;5058446;28;20052;-57
2021/10/17 01:00:29;;;;;;;10.23;5.43;;;15.00;99.90;;;;;;5024555;28;20049;-58
2021/10/17 01:02:56;;;;;;;8.60;4.68;;;15.00;99.90;;;;;;5056717;28;20051;-58
2021/10/17 01:05:24;;;;;;;7.82;4.20;;;15.10;99.90;;;;;;5024125;28;20052;-58
2021/10/17 01:07:51;;;;;;;9.80;4.20;;;15.10;99.90;;;;;;5040859;28;20040;-58
2021/10/17 01:10:19;;;;;;;9.50;4.80;;;15.10;99.90;;;;;;5040411;28;20086;-58
2021/10/17 01:12:48;;;;;;;8.40;5.43;;;15.10;99.90;;;;;;5023842;28;20048;-57
2021/10/17 01:15:18;;;;;;;8.98;4.93;;;15.10;99.90;;;;;;5056895;28;20106;-58
2021/10/17 01:17:52;;;;;;;10.23;5.72;;;15.10;99.90;;;;;;5057410;28;20067;-58
2021/10/17 01:20:22;;;;;;;6.07;4.38;;;15.10;99.90;;;;;;5057149;28;20616;-58
2021/10/17 01:22:53;;;;;;;7.63;4.68;;;15.10;99.90;;;;;;5057100;28;20045;-58
2021/10/17 01:25:21;;;;;;;9.75;4.50;;;15.10;99.90;;;;;;5057255;28;20037;-58
2021/10/17 01:27:48;;;;;;;8.73;5.47;;;15.20;99.90;;;;;;5056934;28;20036;-58
2021/10/17 01:30:17;;;;;;;10.10;5.30;;;15.20;99.90;;;;;;5056827;28;20123;-58
2021/10/17 01:32:47;;;;;;;8.55;4.25;;;15.20;99.90;;;;;;5041204;28;20041;-58
2021/10/17 01:35:15;;;;;;;6.45;4.28;;;15.20;99.90;;;;;;5074393;28;20074;-58
2021/10/17 01:37:43;;;;;;;7.47;4.95;;;15.20;99.90;;;;;;5039544;28;20040;-58
2021/10/17 01:40:12;;;;;;;9.77;4.97;;;15.20;99.90;;;;;;5039871;28;20044;-58
2021/10/17 01:42:40;;;;;;;8.43;4.55;;;15.20;99.90;;;;;;5056252;28;20052;-58
2021/10/17 01:45:08;;;;;;;9.98;4.97;;;15.20;99.90;;;;;;5023432;28;20076;-58
2021/10/17 01:47:37;;;;;;;9.45;4.57;;;15.20;99.90;;;;;;5040284;28;20505;-58
2021/10/17 01:50:05;;;;;;;10.48;5.53;;;15.20;99.90;;;;;;5039861;28;20040;-58
2021/10/17 01:52:33;;;;;;;6.60;4.25;;;15.20;99.90;;;;;;5023791;28;20094;-58
2021/10/17 01:55:02;;;;;;;8.95;5.28;;;15.20;99.90;;;;;;5039895;28;20175;-58
2021/10/17 01:57:29;;;;;;;5.68;3.50;;;15.20;99.90;;;;;;5040331;28;20052;-58
2021/10/17 01:59:57;;;;;;;5.97;3.95;;;15.20;99.90;;;;;;5039240;28;20078;-58
2021/10/17 02:02:40;;;;;;;7.40;3.88;;;15.20;99.90;;;;;;5041832;28;20057;-58
2021/10/17 02:05:15;;;;;;;7.25;4.00;;;15.20;99.90;;;;;;5039661;28;20057;-58
2021/10/17 02:07:45;;;;;;;5.28;2.95;;;15.20;99.90;;;;;;5023180;28;20056;-58
2021/10/17 02:10:14;;;;;;;5.45;3.33;;;15.30;99.90;;;;;;5039248;28;20071;-58
2021/10/17 02:12:42;;;;;;;4.65;3.03;;;15.20;99.90;;;;;;5039399;28;20049;-58
2021/10/17 02:15:11;;;;;;;5.50;3.10;;;15.30;99.90;;;;;;5039465;28;20106;-58
2021/10/17 02:17:40;;;;;;;6.75;3.70;;;15.30;99.90;;;;;;5039340;28;20549;-57
2021/10/17 02:20:10;;;;;;;6.13;3.10;;;15.30;99.90;;;;;;5023274;28;20047;-58
2021/10/17 02:22:40;;;;;;;9.38;3.50;;;15.30;99.90;;;;;;5022543;28;20048;-58
2021/10/17 02:25:08;;;;;;;7.15;3.13;;;15.30;99.90;;;;;;5039108;28;20041;-57
2021/10/17 02:27:36;;;;;;;4.95;2.97;;;15.30;99.90;;;;;;5023338;28;20140;-57
2021/10/17 02:30:07;;;;;;;4.97;3.83;;;15.40;99.90;;;;;;5038880;28;20040;-57
2021/10/17 02:32:53;;;;;;;7.28;3.45;;;15.40;99.90;;;;;;5055795;28;20063;-56
2021/10/17 02:35:30;;;;;;;3.72;2.75;;;15.40;99.90;;;;;;5024056;28;20040;-57
2021/10/17 02:37:57;;;;;;;5.05;3.03;;;15.40;99.90;;;;;;5073926;28;20083;-58
2021/10/17 02:40:30;;;;;;;7.22;4.22;;;15.40;99.90;;;;;;5055647;28;20094;-58
2021/10/17 02:42:59;;;;;;;5.32;3.28;;;15.40;99.90;;;;;;5055658;28;20055;-57
2021/10/17 02:45:26;;;;;;;5.25;3.00;;;15.40;99.90;;;;;;5038914;28;20852;-57
2021/10/17 02:47:55;;;;;;;7.40;3.33;;;15.40;99.90;;;;;;5055882;28;20044;-58
2021/10/17 02:50:23;;;;;;;6.05;3.45;;;15.40;99.90;;;;;;5038986;28;20048;-58
2021/10/17 02:52:51;;;;;;;6.03;3.08;;;15.40;99.90;;;;;;5039247;28;20118;-58
2021/10/17 02:55:22;;;;;;;5.57;3.42;;;15.40;99.90;;;;;;5039454;28;20047;-58
2021/10/17 02:57:50;;;;;;;7.68;3.00;;;15.50;99.90;;;;;;5039182;28;20120;-58
2021/10/17 03:00:19;;;;;;;5.95;4.00;;;15.50;99.90;;;;;;5038829;28;20395;-58
2021/10/17 03:02:51;;;;;;;6.15;3.35;;;15.50;99.90;;;;;;5055414;28;20040;-58
2021/10/17 03:05:18;;;;;;;5.32;3.63;;;15.50;99.90;;;;;;5055612;28;20102;-58
2021/10/17 03:07:47;;;;;;;5.22;3.30;;;15.50;99.90;;;;;;5039078;28;20044;-58
2021/10/17 03:10:15;;;;;;;6.10;3.72;;;15.50;99.90;;;;;;5038506;28;20513;-58
2021/10/17 03:12:42;;;;;;;6.60;4.28;;;15.50;99.90;;;;;;5022407;28;20055;-58
2021/10/17 03:15:16;;;;;;;8.25;4.30;;;15.50;99.90;;;;;;5039554;28;20056;-57
2021/10/17 03:17:45;;;;;;;7.85;3.80;;;15.50;99.90;;;;;;5039016;28;20052;-58
2021/10/17 03:20:13;;;;;;;6.00;3.75;;;15.40;99.90;;;;;;5055378;28;20056;-58
2021/10/17 03:22:44;;;;;;;7.15;4.05;;;15.40;99.90;;;;;;5039284;28;20037;-58
2021/10/17 03:25:12;;;;;;;8.32;4.03;;;15.40;99.90;;;;;;5038435;28;20079;-58
2021/10/17 03:27:40;;;;;;;10.85;4.60;;;15.40;99.90;;;;;;5055327;28;20529;-58
2021/10/17 03:30:14;;;;;;;7.85;5.03;;;15.40;99.90;;;;;;5039513;28;20095;-58
2021/10/17 03:32:42;;;;;;;10.40;4.70;;;15.40;99.90;;;;;;5038743;28;20153;-57
2021/10/17 03:35:09;;;;;;;9.02;5.35;;;15.30;99.90;;;;;;5072792;28;20052;-58
2021/10/17 03:37:37;;;;;;;10.65;5.20;;;15.30;99.90;;;;;;5055111;28;20048;-57
2021/10/17 03:40:05;;;;;;;8.00;4.55;;;15.30;99.90;;;;;;5038616;28;20036;-57
2021/10/17 03:42:35;;;;;;;10.95;5.10;;;15.30;99.90;;;;;;5055351;28;20039;-58
2021/10/17 03:45:04;;;;;;;10.63;5.22;;;15.30;99.90;;;;;;5038463;28;20495;-58
2021/10/17 03:47:34;;;;;;;8.77;4.93;;;15.30;99.90;;;;;;5022135;28;20498;-57
2021/10/17 03:50:04;;;;;;;9.73;5.90;;;15.30;99.90;;;;;;5055397;28;20418;-58
2021/10/17 03:52:33;;;;;;;11.10;6.40;;;15.30;99.90;;;;;;5022690;28;20048;-57
2021/10/17 03:55:04;;;;;;;10.45;6.68;;;15.20;99.90;;;;;;5055296;28;20044;-57
2021/10/17 03:57:32;;;;;;;8.43;6.30;;;15.20;99.90;;;;;;5021969;28;20047;-58
2021/10/17 04:00:00;;;;;;;11.50;6.15;;;15.20;99.90;;;;;;5054913;28;20131;-58
2021/10/17 04:02:28;;;;;;;8.43;5.80;;;15.20;99.90;;;;;;5057017;28;20062;-57
2021/10/17 04:04:57;;;;;;;12.77;5.47;;;15.20;99.90;;;;;;5025163;28;20471;-57
2021/10/17 04:07:29;;;;;;;6.97;4.50;;;15.20;99.90;;;;;;5042193;28;20076;-58
2021/10/17 04:09:57;;;;;;;11.52;4.68;;;15.20;99.90;;;;;;5041657;28;20502;-58
2021/10/17 04:12:25;;;;;;;8.70;4.13;;;15.20;99.90;;;;;;5041918;28;20058;-58
2021/10/17 04:15:01;;;;;;;6.45;3.95;;;15.20;99.90;;;;;;5041556;28;20053;-57
2021/10/17 04:17:29;;;;;;;14.05;4.88;;;15.20;99.90;;;;;;5024977;28;20138;-58
2021/10/17 04:19:57;;;;;;;6.90;4.03;;;15.20;99.90;;;;;;5039431;28;20437;-58
2021/10/17 04:22:25;;;;;;;12.65;4.10;;;15.20;99.90;;;;;;5054569;28;20561;-58
2021/10/17 04:24:53;;;;;;;5.15;3.65;;;15.20;99.90;;;;;;5030448;28;20045;-58
2021/10/17 04:27:20;;;;;;;7.57;4.00;;;15.20;99.90;;;;;;5053215;28;20123;-58
2021/10/17 04:29:49;;;;;;;6.45;3.40;;;15.20;99.90;;;;;;5040195;28;20048;-58
2021/10/17 04:32:17;;;;;;;6.80;3.30;;;15.20;99.90;;;;;;5044251;28;20044;-58
2021/10/17 04:34:45;;;;;;;6.45;3.42;;;15.20;99.90;;;;;;5039084;28;20509;-58
2021/10/17 04:37:13;;;;;;;6.47;3.53;;;15.20;99.90;;;;;;5072556;28;20033;-58
2021/10/17 04:39:41;;;;;;;5.22;3.40;;;15.20;99.90;;;;;;5045458;28;20037;-58
2021/10/17 04:42:08;;;;;;;5.22;3.05;;;15.20;99.90;;;;;;5044584;28;20052;-58
2021/10/17 04:44:38;;;;;;;5.18;2.65;;;15.20;99.90;;;;;;5052674;28;20496;-58
2021/10/17 04:47:06;;;;;;;6.05;2.53;;;15.30;99.90;;;;;;5017072;28;20056;-58
2021/10/17 04:49:33;;;;;;;4.45;2.30;;;15.30;99.90;;;;;;5032544;28;20483;-58
2021/10/17 04:52:02;;;;;;;5.75;3.03;;;15.30;99.90;;;;;;5038740;28;20075;-58
2021/10/17 04:54:30;;;;;;;6.90;2.65;;;15.30;99.90;;;;;;5032403;28;20073;-58
2021/10/17 04:56:57;;;;;;;4.47;2.97;;;15.30;99.90;;;;;;5037382;28;20487;-58
2021/10/17 04:59:26;;;;;;;5.70;2.60;;;15.40;99.90;;;;;;5056649;28;20040;-58
2021/10/17 05:01:58;;;;;;;4.65;2.88;;;15.30;99.90;;;;;;5036806;28;20080;-58
2021/10/17 05:04:26;;;;;;;5.47;2.50;;;15.40;99.90;;;;;;5036593;28;20085;-58
2021/10/17 05:06:54;;;;;;;3.83;2.47;;;15.40;99.90;;;;;;5029137;28;20548;-58
2021/10/17 05:09:22;;;;;;;7.80;2.80;;;15.40;99.90;;;;;;5035027;28;20045;-58
2021/10/17 05:11:49;;;;;;;5.70;2.53;;;15.40;99.90;;;;;;5050003;28;20044;-59
2021/10/17 05:14:18;;;;;;;3.53;2.92;;;15.40;99.90;;;;;;5064320;28;20089;-58
2021/10/17 05:16:46;;;;;;;4.45;2.60;;;15.40;99.90;;;;;;5059341;28;20523;-58
2021/10/17 05:19:15;;;;;;;4.88;2.67;;;15.40;99.90;;;;;;5038991;28;20045;-58
2021/10/17 05:21:45;;;;;;;4.38;2.65;;;15.50;99.90;;;;;;5040761;28;20059;-58
2021/10/17 05:24:13;;;;;;;4.57;2.30;;;15.50;99.90;;;;;;5040862;28;20121;-58
2021/10/17 05:26:40;;;;;;;4.82;3.10;;;15.50;99.90;;;;;;5056717;28;20048;-58
2021/10/17 05:29:08;;;;;;;5.57;2.72;;;15.50;99.90;;;;;;5057178;28;20048;-58
2021/10/17 05:31:35;;;;;;;6.25;3.28;;;15.50;99.90;;;;;;5024130;28;20076;-57
2021/10/17 05:34:03;;;;;;;6.38;3.55;;;15.50;99.90;;;;;;5040251;28;20494;-58
2021/10/17 05:36:31;;;;;;;8.23;3.88;;;15.50;99.90;;;;;;5023628;28;20502;-58
2021/10/17 05:38:59;;;;;;;6.57;3.65;;;15.60;99.90;;;;;;5040313;28;20056;-57
2021/10/17 05:41:27;;;;;;;4.57;2.90;;;15.60;99.90;;;;;;5023696;28;20529;-58
2021/10/17 05:43:56;;;;;;;7.43;2.95;;;15.60;99.90;;;;;;5023751;28;20041;-58
2021/10/17 05:46:24;;;;;;;4.47;3.17;;;15.60;99.90;;;;;;5040252;28;20044;-58
2021/10/17 05:48:53;;;;;;;5.15;3.20;;;15.60;99.90;;;;;;5056207;28;20586;-58
2021/10/17 05:51:21;;;;;;;4.00;3.08;;;15.60;99.90;;;;;;5056195;28;20044;-58
2021/10/17 05:53:49;;;;;;;4.70;3.25;;;15.70;99.90;;;;;;5023402;28;20135;-58
2021/10/17 05:56:18;;;;;;;6.35;3.50;;;15.60;99.90;;;;;;5039522;28;20053;-58
2021/10/17 05:58:45;;;;;;;5.47;3.50;;;15.70;99.90;;;;;;5056231;28;20036;-57
2021/10/17 06:01:13;;;;;;;4.35;2.78;;;15.70;99.90;;;;;;5039585;28;20045;-58
2021/10/17 06:03:52;;;;;;;5.25;3.38;;;15.70;99.90;;;;;;5040701;28;20067;-58
2021/10/17 06:06:41;;;;;;;7.72;3.65;;;15.80;99.90;;;;;;5052507;28;20051;-58
2021/10/17 06:09:12;;;;;;;6.05;3.75;;;15.80;99.90;;;;;;5056596;28;20039;-58
2021/10/17 06:11:41;;;;;;;5.13;3.17;;;15.90;99.90;;;;;;5072470;28;20068;-58
2021/10/17 06:14:10;;;;;;;5.53;3.33;;;15.90;99.90;;;;;;5056017;28;20043;-58
2021/10/17 06:16:38;;;;;;;5.18;3.28;;;16.00;99.90;;;;;;5055983;28;20102;-57
2021/10/17 06:19:06;;;;;;;6.18;4.50;;;16.00;99.90;;;;;;5072835;28;20064;-58
2021/10/17 06:21:39;;;;;;;7.43;3.40;;;16.00;99.90;;;;;;5056306;28;20052;-57
2021/10/17 06:24:08;;;;;;;5.05;3.30;;;16.10;99.90;;;;;;5055805;28;20417;-58
2021/10/17 06:26:35;;;;;;;13.90;4.00;;;16.20;99.90;;;;;;5038789;28;20525;-58
2021/10/17 06:29:03;;;;;;;5.93;3.00;;;16.20;99.90;;;;;;5072383;28;20098;-58
2021/10/17 06:31:32;;;;;;;8.70;4.80;;;16.30;99.90;;;;;;5055651;28;20076;-57
2021/10/17 06:34:00;;;;;;;6.05;3.35;;;16.40;99.90;;;;;;5055767;28;20060;-58
2021/10/17 06:36:27;;;;;;;5.90;3.53;;;16.50;99.90;;;;;;5055845;28;20048;-59
2021/10/17 06:38:55;;;;;;;4.05;2.83;;;16.80;99.90;;;;;;5072171;28;20053;-58
2021/10/17 06:41:25;;;;;;;6.78;4.22;;;17.10;99.90;;;;;;5072401;28;20479;-58
2021/10/17 06:43:52;;;;;;;8.70;3.13;;;17.30;99.90;;;;;;5072134;28;20485;-58
2021/10/17 06:46:22;;;;;;;5.82;2.75;;;17.50;99.90;;;;;;5072325;28;20032;-57
2021/10/17 06:48:52;;;;;;;5.13;3.13;;;17.60;99.90;;;;;;5055725;28;20053;-57
2021/10/17 06:51:20;;;;;;;4.90;2.63;;;17.70;99.90;;;;;;5073422;28;20037;-58
2021/10/17 06:53:48;;;;;;;5.22;2.67;;;17.80;99.90;;;;;;5071793;28;20045;-58
2021/10/17 06:56:18;;;;;;;4.53;2.63;;;17.80;99.90;;;;;;5055379;28;20044;-58
2021/10/17 06:58:46;;;;;;;4.32;2.70;;;17.90;99.90;;;;;;5071781;28;20048;-58
2021/10/17 07:01:14;;;;;;;4.40;2.55;;;18.00;99.90;;;;;;5072096;28;20049;-58
2021/10/17 07:03:47;;;;;;;4.80;2.97;;;18.00;99.90;;;;;;5056555;28;20045;-58
2021/10/17 07:06:17;;;;;;;5.22;2.53;;;18.20;99.90;;;;;;5071813;28;20682;-58
2021/10/17 07:08:56;;;;;;;5.63;3.03;;;18.40;99.90;;;;;;5038279;28;20045;-57
2021/10/17 07:11:36;;;;;;;5.45;3.45;;;18.60;99.90;;;;;;5057287;28;20076;-58
2021/10/17 07:14:06;;;;;;;3.92;2.90;;;18.70;99.90;;;;;;5072127;28;20086;-58
2021/10/17 07:16:47;;;;;;;6.40;2.97;;;18.90;99.90;;;;;;5071437;28;20514;-58
2021/10/17 07:19:14;;;;;;;4.00;2.67;;;19.00;99.70;;;;;;5055189;28;20437;-58
2021/10/17 07:21:42;;;;;;;5.03;2.67;;;19.00;99.60;;;;;;5055172;28;20051;-58
2021/10/17 07:24:10;;;;;;;5.13;2.90;;;19.20;99.60;;;;;;5055263;28;20044;-59
2021/10/17 07:26:40;;;;;;;4.70;3.00;;;19.40;99.50;;;;;;5055951;28;20043;-58
2021/10/17 07:29:08;;;;;;;13.85;3.20;;;19.70;99.40;;;;;;5055704;28;20075;-58
2021/10/17 07:31:37;;;;;;;5.50;3.08;;;19.90;98.90;;;;;;5055441;28;20548;-58
2021/10/17 07:34:07;;;;;;;4.82;3.15;;;20.20;98.80;;;;;;5055378;28;20041;-58
2021/10/17 07:36:36;;;;;;;5.72;2.95;;;20.50;98.50;;;;;;5072655;28;20434;-58
2021/10/17 07:39:12;;;;;;;5.43;2.75;;;20.80;98.00;;;;;;5060358;28;20064;-58
2021/10/17 07:41:48;;;;;;;5.00;2.65;;;21.10;97.60;;;;;;5060313;28;20517;-58
2021/10/17 07:44:17;;;;;;;6.18;3.47;;;21.30;97.20;;;;;;5059372;28;20106;-58
2021/10/17 07:47:11;;;;;;;5.35;2.72;;;21.40;97.00;;;;;;5073692;28;20049;-58
2021/10/17 07:49:51;;;;;;;3.88;2.55;;;21.50;96.80;;;;;;5060954;28;20043;-58
2021/10/17 07:52:21;;;;;;;4.70;3.17;;;21.60;96.70;;;;;;5059194;28;20036;-58
2021/10/17 07:54:48;;;;;;;3.67;2.58;;;21.70;96.60;;;;;;5076523;28;20135;-58
2021/10/17 07:57:50;;;;;;;4.85;2.80;;;21.80;96.20;;;;;;5075432;28;20068;-58
2021/10/17 08:00:19;;;;;;;5.47;3.45;;;21.80;95.80;;;;;;5075435;28;20040;-58
2021/10/17 08:03:07;;;;;;;5.10;2.97;;;21.90;96.00;;;;;;5076427;28;20048;-58
2021/10/17 08:05:35;;;;;;;4.28;2.10;;;21.90;95.60;;;;;;5041996;28;20048;-58
2021/10/17 08:08:03;;;;;;;3.85;2.42;;;22.00;95.80;;;;;;5075150;28;20120;-58
2021/10/17 08:10:31;;;;;;;6.15;2.97;;;22.00;95.50;;;;;;5075168;28;20036;-58
2021/10/17 08:12:59;;;;;;;4.72;2.55;;;22.10;95.40;;;;;;5075155;28;20148;-58
2021/10/17 08:15:30;;;;;;;5.15;2.53;;;22.10;95.20;;;;;;5042213;28;20143;-58
2021/10/17 08:17:59;;;;;;;4.72;2.50;;;22.20;95.10;;;;;;5075280;28;20055;-58
2021/10/17 08:20:35;;;;;;;4.13;2.40;;;22.20;95.00;;;;;;5058259;28;20135;-58
2021/10/17 08:23:03;;;;;;;3.75;2.53;;;22.30;94.90;;;;;;5075050;28;20090;-58
2021/10/17 08:25:32;;;;;;;3.33;2.45;;;22.40;94.70;;;;;;5074980;28;20033;-58
2021/10/17 08:28:00;;;;;;;5.38;2.50;;;22.40;94.60;;;;;;5074951;28;20032;-58
2021/10/17 08:30:30;;;;;;;3.00;2.28;;;22.50;94.40;;;;;;5041907;28;20102;-58
2021/10/17 08:32:57;;;;;;;3.63;2.20;;;22.50;94.20;;;;;;5075039;28;20076;-57
2021/10/17 08:35:27;;;;;;;4.30;2.20;;;22.50;93.70;;;;;;5074626;28;20098;-58
2021/10/17 08:37:55;;;;;;;2.58;2.13;;;22.60;93.40;;;;;;5058279;28;20049;-58
2021/10/17 08:40:56;;;;;;;3.42;2.17;;;22.70;93.20;;;;;;5067082;28;20056;-58
2021/10/17 08:43:41;;;;;;;5.20;2.03;;;22.70;93.00;;;;;;5074463;28;20051;-58
2021/10/17 08:46:20;;;;;;;3.20;1.90;;;22.80;92.90;;;;;;5057841;28;20056;-58
2021/10/17 08:48:57;;;;;;;3.72;1.98;;;22.80;92.70;;;;;;5057750;28;20372;-58
2021/10/17 08:51:27;;;;;;;3.35;2.28;;;22.80;92.40;;;;;;5074470;28;20782;-58
2021/10/17 08:54:04;;;;;;;3.58;2.30;;;22.80;92.50;;;;;;5074593;28;20075;-58
2021/10/17 08:56:35;;;;;;;3.70;2.15;;;22.80;92.40;;;;;;5074278;28;20045;-58
2021/10/17 08:59:03;;;;;;;4.78;2.55;;;22.80;92.20;;;;;;5057789;28;20075;-58
2021/10/17 09:01:42;;;;;;;3.10;1.73;;;22.70;92.20;;;;;;5059319;28;20498;-58
2021/10/17 09:04:14;;;;;;;2.95;2.05;;;22.80;92.10;;;;;;5058097;28;20399;-58
2021/10/17 09:06:56;;;;;;;2.22;1.48;;;22.80;91.80;;;;;;5057714;28;20105;-56
2021/10/17 09:09:24;;;;;;;4.43;2.28;;;22.90;91.80;;;;;;5040978;28;20040;-57
2021/10/17 09:11:58;;;;;;;5.68;2.35;;;22.90;91.70;;;;;;5025835;28;20044;-57
2021/10/17 09:14:28;;;;;;;2.83;2.25;;;23.00;91.40;;;;;;5075151;28;20079;-57
2021/10/17 09:16:57;;;;;;;2.85;1.90;;;23.00;91.10;;;;;;5044057;28;20189;-57
2021/10/17 09:19:34;;;;;;;3.25;1.73;;;22.80;90.60;;;;;;5060539;28;20372;-57
2021/10/17 09:22:11;;;;;;;4.15;2.20;;;22.80;90.60;;;;;;5044527;28;20070;-57
2021/10/17 09:24:42;;;;;;;3.10;1.90;;;22.70;90.50;;;;;;5076836;28;20442;-56
2021/10/17 09:27:10;;;;;;;2.92;1.70;;;22.80;90.40;;;;;;5060542;28;20090;-59
2021/10/17 09:29:40;;;;;;;5.22;2.00;;;22.80;90.30;;;;;;5060672;28;20440;-59
2021/10/17 09:32:22;;;;;;;3.42;2.20;;;22.90;90.40;;;;;;5077101;28;20059;-57
2021/10/17 09:35:01;;;;;;;3.45;2.42;;;22.80;90.30;;;;;;5060474;28;20125;-56
2021/10/17 09:37:48;;;;;;;2.63;1.63;;;22.90;90.10;;;;;;5076813;28;20036;-59
2021/10/17 09:40:36;;;;;;;5.75;2.38;;;23.00;90.20;;;;;;5080058;28;20046;-58
2021/10/17 09:43:24;;;;;;;5.22;2.10;;;23.00;90.10;;;;;;5045271;28;20044;-59
2021/10/17 09:46:14;;;;;;;2.53;1.55;;;23.10;90.20;;;;;;5079150;28;20079;-57
2021/10/17 09:48:43;;;;;;;2.60;1.38;;;23.10;88.70;;;;;;5043686;28;20044;-57
2021/10/17 09:51:21;;;;;;;2.05;1.50;;;23.00;87.30;;;;;;5044125;28;20052;-57
2021/10/17 09:53:52;;;;;;;3.88;2.20;;;23.10;86.50;;;;;;5094473;28;20040;-57
2021/10/17 09:56:30;;;;;;;5.70;2.10;;;23.10;86.70;;;;;;5076557;28;20138;-57
2021/10/17 09:59:03;;;;;;;3.30;1.92;;;23.00;87.90;;;;;;5076011;28;20039;-57
2021/10/17 10:01:32;;;;;;;3.13;1.92;;;23.00;87.80;;;;;;5076642;28;20089;-57
2021/10/17 10:04:03;;;;;;;4.45;2.10;;;23.00;88.40;;;;;;5094365;28;20089;-56
2021/10/17 10:06:31;;;;;;;3.17;1.95;;;23.10;88.40;;;;;;5093888;28;20055;-58
2021/10/17 10:09:04;;;;;;;4.30;2.13;;;23.20;87.70;;;;;;5074900;28;20044;-58
2021/10/17 10:11:33;;;;;;;3.58;2.47;;;23.50;87.70;;;;;;5041731;28;20052;-58
2021/10/17 10:14:07;;;;;;;3.22;2.10;;;23.60;87.50;;;;;;5058129;28;20055;-58
2021/10/17 10:16:36;;;;;;;3.22;2.55;;;23.50;87.00;;;;;;5057989;28;20577;-58
2021/10/17 10:19:09;;;;;;;4.60;2.40;;;23.20;86.90;;;;;;5093111;28;20051;-58
2021/10/17 10:21:37;;;;;;;5.10;2.08;;;22.90;87.00;;;;;;5092740;28;20114;-58
2021/10/17 10:24:07;;;;;;;3.42;2.17;;;22.60;87.70;;;;;;5057775;28;20076;-58
2021/10/17 10:26:37;;;;;;;3.63;2.17;;;22.40;88.70;;;;;;5092608;28;20124;-58
2021/10/17 10:29:06;;;;;;;3.75;2.50;;;22.10;89.10;;;;;;5092765;28;20073;-58
2021/10/17 10:31:42;;;;;;;4.97;2.72;;;21.90;89.50;;;;;;5074558;28;20040;-58
2021/10/17 10:34:34;;;;;;;2.80;1.90;;;21.70;90.20;;;;;;5074799;28;20052;-57
2021/10/17 10:37:46;;;;;;;3.65;2.72;;;21.50;90.20;;;;;;5042079;28;20059;-58
2021/10/17 10:40:17;;;;;;;3.17;2.03;;;21.40;90.30;;;;;;4975383;28;20465;-58
2021/10/17 10:42:47;;;;;;;4.10;2.42;;;21.40;90.20;;;;;;4974834;28;20125;-58
2021/10/17 10:45:38;;;;;;;2.85;1.98;;;21.30;90.20;;;;;;5032349;28;20048;-58
2021/10/17 10:48:12;;;;;;;13.75;2.40;;;21.30;90.30;;;;;;5074489;28;20500;-58
2021/10/17 10:50:51;;;;;;;3.75;2.42;;;21.50;90.50;;;;;;5074649;28;20371;-58
2021/10/17 10:53:58;;;;;;;2.95;2.00;;;21.70;90.40;;;;;;5092483;28;20093;-58
2021/10/17 10:56:37;;;;;;;2.88;2.13;;;22.10;90.10;;;;;;4990699;28;20081;-58
2021/10/17 10:59:06;;;;;;;3.10;2.30;;;22.40;88.80;;;;;;4958745;28;20050;-57
2021/10/17 11:02:18;;;;;;;3.00;2.03;;;22.70;88.40;;;;;;5033240;28;20073;-58
2021/10/17 11:04:45;;;;;;;3.08;2.00;;;23.00;87.80;;;;;;5064514;28;20048;-57
2021/10/17 11:07:16;;;;;;;3.35;2.28;;;23.10;87.50;;;;;;5091903;28;20097;-58
2021/10/17 11:09:45;;;;;;;2.67;1.80;;;22.90;87.10;;;;;;5057608;28;20431;-58
2021/10/17 11:12:38;;;;;;;3.63;2.05;;;22.70;87.90;;;;;;5076297;28;20066;-58
2021/10/17 11:15:07;;;;;;;2.90;2.08;;;22.50;88.60;;;;;;5096088;28;20052;-58
2021/10/17 11:17:34;;;;;;;4.07;2.10;;;22.20;89.00;;;;;;5077986;28;20074;-57
2021/10/17 11:20:04;;;;;;;5.05;2.30;;;22.00;89.60;;;;;;5078141;28;20047;-57
2021/10/17 11:22:36;;;;;;;3.85;2.17;;;21.90;90.00;;;;;;5061051;28;20044;-58
2021/10/17 11:25:04;;;;;;;3.60;2.13;;;21.80;90.40;;;;;;5077995;28;20055;-57
2021/10/17 11:27:34;;;;;;;2.50;1.80;;;21.70;90.40;;;;;;5045109;28;20048;-57
2021/10/17 11:30:05;;;;;;;4.03;2.10;;;21.50;90.60;;;;;;5077798;28;20044;-57
2021/10/17 11:32:34;;;;;;;4.10;2.78;;;21.40;91.00;;;;;;5078096;28;20111;-58
2021/10/17 11:35:05;;;;;;;4.07;1.92;;;21.20;91.50;;;;;;5077799;28;20067;-57
2021/10/17 11:37:33;;;;;;;6.38;3.20;;;21.10;91.70;;;;;;5095803;28;20065;-58
2021/10/17 11:40:10;;;;;;;4.82;2.50;;;21.00;92.10;;;;;;5077934;28;20040;-57
2021/10/17 11:42:53;;;;;;;4.65;2.10;;;20.90;92.10;;;;;;5061502;28;20055;-57
2021/10/17 11:45:27;;;;;;;3.53;2.63;;;20.80;92.30;;;;;;5061175;28;20036;-58
2021/10/17 11:47:57;;;;;;;4.68;2.22;;;20.60;92.30;;;;;;5060859;28;20105;-58
2021/10/17 11:50:38;;;;;;;4.55;2.42;;;20.50;92.50;;;;;;5095698;28;20044;-58
2021/10/17 11:53:08;;;;;;;3.92;2.65;;;20.40;92.60;;;;;;5078320;28;20040;-58
2021/10/17 11:55:43;;;;;;;3.40;2.03;;;20.30;92.70;;;;;;5062451;28;20044;-58
2021/10/17 11:58:18;;;;;;;4.07;2.60;;;20.20;92.80;;;;;;5078585;28;20048;-58
2021/10/17 12:00:48;;;;;;;3.67;2.30;;;20.20;93.00;;;;;;5062146;28;20066;-58
2021/10/17 12:03:20;;;;;;;2.85;2.13;;;20.20;93.40;;;;;;5096895;28;20484;-58
2021/10/17 12:05:49;;;;;;;4.15;2.80;;;20.10;93.60;;;;;;5078894;28;20562;-57
2021/10/17 12:08:25;;;;;;;3.88;2.55;;;20.00;93.90;;;;;;5045537;28;20463;-58
2021/10/17 12:10:58;;;;;;;5.30;3.35;;;19.90;94.40;;;;;;5078723;28;20054;-57
2021/10/17 12:13:27;;;;;;;4.00;2.65;;;19.80;94.50;;;;;;5062075;28;20478;-57
2021/10/17 12:16:07;;;;;;;7.25;3.17;;;19.80;94.70;;;;;;5061485;28;20138;-57
2021/10/17 12:18:40;;;;;;;3.63;2.63;;;19.70;95.00;;;;;;5078896;28;20040;-57
2021/10/17 12:21:09;;;;;;;5.88;3.25;;;19.70;95.00;;;;;;5078155;28;20397;-58
2021/10/17 12:23:38;;;;;;;3.83;2.65;;;19.60;95.20;;;;;;5077712;28;20055;-58
2021/10/17 12:26:29;;;;;;;4.18;2.50;;;19.60;95.60;;;;;;5078227;28;20127;-58
2021/10/17 12:29:05;;;;;;;6.78;2.67;;;19.50;95.90;;;;;;5077817;28;20143;-58
2021/10/17 12:31:35;;;;;;;3.73;2.30;;;19.50;96.20;;;;;;5061031;28;20054;-58
2021/10/17 12:34:06;;;;;;;3.90;2.50;;;19.50;96.40;;;;;;5077697;28;20398;-57
2021/10/17 12:36:34;;;;;;;4.85;2.45;;;19.40;96.50;;;;;;5061552;28;20048;-57
2021/10/17 12:39:11;;;;;;;7.05;2.53;;;19.40;96.60;;;;;;5077851;28;20048;-57
2021/10/17 12:41:39;;;;;;;3.22;2.08;;;19.40;96.70;;;;;;5095751;28;20127;-57
2021/10/17 12:44:12;;;;;;;4.72;2.35;;;19.40;96.70;;;;;;5061244;28;20102;-58
2021/10/17 12:46:40;;;;;;;8.02;2.60;;;19.40;96.80;;;;;;5095705;28;20097;-57
2021/10/17 12:49:13;;;;;;;3.50;2.38;;;19.40;97.00;;;;;;5077857;28;20051;-58
2021/10/17 12:51:49;;;;;;;5.95;2.75;;;19.30;97.10;;;;;;5077494;28;20150;-57
2021/10/17 12:54:25;;;;;;;3.88;2.47;;;19.30;97.20;;;;;;5060641;28;20044;-57
2021/10/17 12:56:53;;;;;;;8.05;2.83;;;19.30;97.20;;;;;;5077601;28;20048;-57
2021/10/17 12:59:33;;;;;;;5.43;3.53;;;19.30;97.20;;;;;;5077101;28;20482;-58
2021/10/17 13:02:09;;;;;;;8.23;3.80;;;19.30;97.20;;;;;;5095470;28;20048;-58
2021/10/17 13:04:41;;;;;;;5.40;2.55;;;19.30;97.20;;;;;;5077673;28;20046;-58
2021/10/17 13:07:11;;;;;;;5.55;2.85;;;19.30;97.60;;;;;;5075905;28;20047;-59